createdAt,value
2018-08-21T00:00:19.827Z,22.10
2018-08-21T00:02:48.739Z,22.10
2018-08-21T00:05:17.594Z,22.10
2018-08-21T00:07:46.575Z,22.00
2018-08-21T00:10:15.566Z,22.00
2018-08-21T00:12:44.463Z,22.00
2018-08-21T00:15:17.666Z,21.90
2018-08-21T00:17:46.759Z,21.90
2018-08-21T00:20:21.427Z,21.90
2018-08-21T00:22:52.831Z,21.80
2018-08-21T00:25:23.626Z,21.80
2018-08-21T00:27:52.467Z,21.90
2018-08-21T00:30:41.443Z,21.90
2018-08-21T00:33:10.717Z,21.80
2018-08-21T00:35:45.671Z,21.80
2018-08-21T00:38:15.679Z,21.70
2018-08-21T00:40:44.499Z,21.70
2018-08-21T00:43:13.371Z,21.70
2018-08-21T00:45:42.237Z,21.70
2018-08-21T00:48:11.135Z,21.70
2018-08-21T00:50:39.931Z,21.70
2018-08-21T00:53:08.842Z,21.60
2018-08-21T00:55:37.803Z,21.60
2018-08-21T00:58:06.758Z,21.60
2018-08-21T01:00:35.651Z,21.60
2018-08-21T01:03:04.555Z,21.50
2018-08-21T01:05:33.530Z,21.50
2018-08-21T01:08:03.276Z,21.50
2018-08-21T01:10:32.171Z,21.50
2018-08-21T01:13:01.050Z,21.50
2018-08-21T01:15:29.969Z,21.50
2018-08-21T01:17:58.895Z,21.50
2018-08-21T01:20:27.754Z,21.50
2018-08-21T01:22:56.587Z,21.40
2018-08-21T01:25:25.523Z,21.50
2018-08-21T01:27:54.341Z,21.40
2018-08-21T01:30:23.226Z,21.40
2018-08-21T01:32:52.046Z,21.40
2018-08-21T01:35:21.059Z,21.40
2018-08-21T01:37:49.916Z,21.40
2018-08-21T01:40:18.751Z,21.40
2018-08-21T01:42:47.606Z,21.30
2018-08-21T01:45:16.520Z,21.30
2018-08-21T01:47:45.391Z,21.30
2018-08-21T01:50:14.243Z,21.30
2018-08-21T01:52:43.175Z,21.30
2018-08-21T01:55:12.136Z,21.20
2018-08-21T01:57:40.938Z,21.20
2018-08-21T02:00:09.763Z,21.20
2018-08-21T02:02:38.645Z,21.20
2018-08-21T02:05:07.684Z,21.10
2018-08-21T02:07:36.531Z,21.10
2018-08-21T02:10:05.663Z,21.10
2018-08-21T02:12:34.514Z,21.10
2018-08-21T02:15:04.172Z,21.10
2018-08-21T02:17:33.034Z,21.10
2018-08-21T02:20:01.879Z,21.10
2018-08-21T02:22:30.728Z,21.00
2018-08-21T02:24:59.604Z,20.90
2018-08-21T02:27:28.518Z,21.00
2018-08-21T02:29:57.385Z,21.00
2018-08-21T02:32:26.253Z,20.90
2018-08-21T02:34:55.146Z,20.90
2018-08-21T02:37:23.975Z,20.90
2018-08-21T02:40:31.583Z,20.90
2018-08-21T02:43:00.433Z,20.80
2018-08-21T02:45:29.347Z,20.80
2018-08-21T02:47:58.183Z,20.80
2018-08-21T02:50:27.003Z,20.80
2018-08-21T02:52:55.870Z,20.80
2018-08-21T02:55:24.860Z,20.80
2018-08-21T02:57:53.685Z,20.70
2018-08-21T03:00:22.520Z,20.80
2018-08-21T03:02:51.390Z,20.70
2018-08-21T03:05:20.352Z,20.70
2018-08-21T03:07:49.159Z,20.70
2018-08-21T03:10:18.009Z,20.70
2018-08-21T03:12:46.952Z,20.60
2018-08-21T03:15:15.803Z,20.60
2018-08-21T03:17:44.627Z,20.70
2018-08-21T03:20:13.507Z,20.70
2018-08-21T03:22:42.330Z,20.60
2018-08-21T03:25:11.255Z,20.50
2018-08-21T03:27:40.061Z,20.50
2018-08-21T03:30:09.187Z,20.50
2018-08-21T03:32:38.037Z,20.50
2018-08-21T03:35:07.059Z,20.50
2018-08-21T03:37:35.871Z,20.60
2018-08-21T03:40:04.765Z,20.60
2018-08-21T03:42:35.039Z,20.60
2018-08-21T03:45:04.989Z,20.50
2018-08-21T03:47:42.752Z,20.60
2018-08-21T03:50:12.143Z,20.50
2018-08-21T03:52:41.060Z,20.50
2018-08-21T03:55:10.986Z,20.40
2018-08-21T03:57:40.087Z,20.40
2018-08-21T04:00:16.003Z,20.40
2018-08-21T04:02:44.846Z,20.40
2018-08-21T04:05:13.927Z,20.40
2018-08-21T04:07:44.363Z,20.40
2018-08-21T04:10:13.280Z,20.40
2018-08-21T04:12:42.066Z,20.40
2018-08-21T04:15:11.034Z,20.40
2018-08-21T04:17:39.852Z,20.30
2018-08-21T04:20:10.450Z,20.30
2018-08-21T04:22:40.442Z,20.30
2018-08-21T04:25:09.759Z,20.30
2018-08-21T04:27:38.638Z,20.30
2018-08-21T04:30:10.098Z,20.30
2018-08-21T04:32:38.945Z,20.30
2018-08-21T04:35:07.888Z,20.30
2018-08-21T04:37:36.946Z,20.30
2018-08-21T04:40:05.848Z,20.30
2018-08-21T04:42:34.686Z,20.30
2018-08-21T04:45:06.679Z,20.30
2018-08-21T04:47:40.248Z,20.30
2018-08-21T04:50:10.842Z,20.30
2018-08-21T04:52:42.470Z,20.30
2018-08-21T04:55:11.442Z,20.40
2018-08-21T04:57:43.162Z,20.40
2018-08-21T05:00:12.334Z,20.40
2018-08-21T05:02:49.416Z,20.40
2018-08-21T05:05:18.727Z,20.40
2018-08-21T05:07:55.060Z,20.40
2018-08-21T05:10:24.195Z,20.50
2018-08-21T05:12:55.451Z,20.50
2018-08-21T05:15:26.186Z,20.40
2018-08-21T05:17:59.375Z,20.40
2018-08-21T05:20:29.192Z,20.50
2018-08-21T05:22:58.086Z,20.50
2018-08-21T05:25:52.405Z,20.60
2018-08-21T05:28:22.857Z,20.60
2018-08-21T05:31:00.576Z,20.70
2018-08-21T05:33:30.430Z,20.70
2018-08-21T05:36:02.099Z,20.70
2018-08-21T05:38:33.083Z,20.70
2018-08-21T05:41:04.652Z,20.80
2018-08-21T05:43:35.181Z,20.80
2018-08-21T05:46:05.339Z,20.80
2018-08-21T05:48:35.501Z,20.80
2018-08-21T05:51:04.731Z,20.80
2018-08-21T05:53:33.546Z,20.90
2018-08-21T05:56:02.519Z,20.90
2018-08-21T05:58:31.442Z,20.90
2018-08-21T06:01:00.343Z,20.90
2018-08-21T06:03:29.336Z,21.00
2018-08-21T06:05:58.315Z,21.00
2018-08-21T06:08:27.184Z,21.10
2018-08-21T06:10:56.186Z,21.10
2018-08-21T06:13:25.035Z,21.10
2018-08-21T06:15:54.063Z,21.20
2018-08-21T06:18:23.278Z,21.20
2018-08-21T06:20:54.299Z,21.20
2018-08-21T06:23:25.602Z,21.20
2018-08-21T06:25:54.549Z,21.20
2018-08-21T06:28:27.631Z,21.20
2018-08-21T06:30:56.488Z,21.30
2018-08-21T06:33:25.360Z,21.40
2018-08-21T06:35:54.259Z,21.40
2018-08-21T06:38:23.119Z,21.40
2018-08-21T06:40:51.951Z,21.40
2018-08-21T06:43:20.802Z,21.50
2018-08-21T06:45:52.511Z,21.50
2018-08-21T06:48:21.443Z,21.50
2018-08-21T06:50:50.256Z,21.60
2018-08-21T06:53:19.071Z,21.60
2018-08-21T06:55:48.015Z,21.70
2018-08-21T06:58:16.841Z,21.70
2018-08-21T07:00:46.173Z,21.80
2018-08-21T07:03:15.059Z,21.80
2018-08-21T07:05:43.912Z,21.90
2018-08-21T07:08:13.219Z,22.00
2018-08-21T07:10:42.163Z,22.00
2018-08-21T07:13:11.046Z,22.10
2018-08-21T07:15:39.946Z,22.20
2018-08-21T07:18:09.607Z,22.30
2018-08-21T07:20:38.450Z,22.30
2018-08-21T07:23:07.417Z,22.40
2018-08-21T07:25:42.634Z,22.40
2018-08-21T07:28:17.088Z,22.50
2018-08-21T07:30:50.444Z,22.60
2018-08-21T07:33:23.212Z,22.70
2018-08-21T07:35:52.761Z,22.70
2018-08-21T07:38:21.626Z,22.80
2018-08-21T07:40:50.458Z,22.90
2018-08-21T07:43:26.936Z,22.90
2018-08-21T07:46:00.490Z,23.00
2018-08-21T07:48:29.818Z,23.10
2018-08-21T07:50:58.651Z,23.10
2018-08-21T07:53:27.455Z,23.20
2018-08-21T07:55:56.303Z,23.30
2018-08-21T07:58:25.167Z,23.30
2018-08-21T08:00:54.000Z,23.40
2018-08-21T08:03:22.839Z,23.50
2018-08-21T08:05:51.763Z,23.60
2018-08-21T08:08:20.583Z,23.70
2018-08-21T08:10:49.431Z,23.80
2018-08-21T08:13:20.812Z,23.80
2018-08-21T08:15:49.759Z,24.00
2018-08-21T08:18:18.809Z,24.10
2018-08-21T08:20:47.830Z,24.20
2018-08-21T08:23:16.941Z,24.30
2018-08-21T08:25:45.744Z,24.40
2018-08-21T08:28:14.542Z,24.50
2018-08-21T08:30:43.374Z,24.50
2018-08-21T08:33:12.227Z,24.50
2018-08-21T08:35:41.123Z,24.50
2018-08-21T08:38:15.531Z,24.60
2018-08-21T08:40:44.356Z,24.70
2018-08-21T08:43:13.269Z,24.80
2018-08-21T08:45:44.465Z,24.90
2018-08-21T08:48:15.543Z,24.90
2018-08-21T08:50:44.859Z,24.90
2018-08-21T08:53:13.955Z,25.00
2018-08-21T08:55:48.184Z,25.10
2018-08-21T08:58:21.930Z,25.20
2018-08-21T09:00:56.340Z,25.20
2018-08-21T09:04:00.392Z,25.30
2018-08-21T09:06:30.405Z,25.40
2018-08-21T09:08:59.411Z,25.50
2018-08-21T09:11:37.711Z,25.50
2018-08-21T09:14:07.035Z,25.70
2018-08-21T09:16:35.858Z,25.80
2018-08-21T09:19:04.691Z,26.00
2018-08-21T09:21:33.514Z,26.20
2018-08-21T09:24:02.334Z,26.20
2018-08-21T09:26:36.414Z,26.40
2018-08-21T09:29:06.027Z,26.50
2018-08-21T09:31:42.566Z,26.60
2018-08-21T09:34:11.393Z,26.70
2018-08-21T09:36:57.180Z,26.60
2018-08-21T09:39:26.446Z,26.70
2018-08-21T09:42:07.996Z,26.80
2018-08-21T09:44:36.860Z,26.80
2018-08-21T09:47:05.733Z,26.80
2018-08-21T09:49:35.098Z,26.70
2018-08-21T09:52:03.928Z,26.90
2018-08-21T09:54:49.091Z,27.10
2018-08-21T09:57:18.765Z,27.40
2018-08-21T09:59:47.627Z,27.40
2018-08-21T10:02:22.088Z,27.50
2018-08-21T10:05:55.479Z,27.50
2018-08-21T10:08:24.606Z,27.40
2018-08-21T10:10:53.420Z,27.50
2018-08-21T10:13:22.309Z,27.50
2018-08-21T10:15:51.106Z,27.60
2018-08-21T10:18:19.987Z,27.70
2018-08-21T10:20:48.772Z,27.70
2018-08-21T10:23:17.598Z,27.90
2018-08-21T10:25:46.476Z,28.00
2018-08-21T10:28:19.799Z,28.00
2018-08-21T10:30:53.138Z,28.10
2018-08-21T10:33:21.940Z,28.10
2018-08-21T10:35:55.472Z,28.20
2018-08-21T10:38:24.257Z,28.20
2018-08-21T10:40:53.257Z,28.20
2018-08-21T10:43:22.147Z,28.40
2018-08-21T10:46:54.127Z,28.50
2018-08-21T10:49:22.923Z,28.70
2018-08-21T10:51:51.763Z,28.70
2018-08-21T10:54:20.591Z,28.80
2018-08-21T10:56:49.394Z,29.00
2018-08-21T10:59:18.250Z,29.10
2018-08-21T11:01:47.059Z,29.20
2018-08-21T11:04:15.870Z,29.30
2018-08-21T11:06:44.692Z,29.50
2018-08-21T11:09:13.531Z,29.50
2018-08-21T11:11:42.372Z,29.50
2018-08-21T11:14:12.249Z,29.50
2018-08-21T11:16:41.169Z,29.50
2018-08-21T11:19:10.012Z,29.60
2018-08-21T11:21:38.839Z,29.80
2018-08-21T11:24:07.712Z,29.90
2018-08-21T11:26:36.759Z,29.90
2018-08-21T11:29:05.607Z,29.90
2018-08-21T11:31:34.454Z,30.10
2018-08-21T11:34:03.330Z,30.30
2018-08-21T11:39:33.217Z,30.60
2018-08-21T11:42:02.116Z,30.80
2018-08-21T11:44:31.028Z,30.80
2018-08-21T11:46:59.835Z,30.90
2018-08-21T11:49:28.635Z,31.00
2018-08-21T11:51:57.422Z,31.10
2018-08-21T11:54:26.230Z,31.30
2018-08-21T11:56:55.048Z,31.40
2018-08-21T11:59:24.046Z,31.70
2018-08-21T12:01:53.229Z,31.90
2018-08-21T12:04:22.064Z,32.10
2018-08-21T12:06:50.882Z,32.40
2018-08-21T12:09:19.663Z,32.50
2018-08-21T12:11:48.466Z,32.60
2018-08-21T12:14:17.242Z,32.80
2018-08-21T12:16:46.035Z,33.00
2018-08-21T12:19:14.832Z,33.30
2018-08-21T12:21:43.643Z,33.50
2018-08-21T12:24:12.444Z,33.80
2018-08-21T12:26:41.320Z,34.10
2018-08-21T12:29:10.113Z,34.20
2018-08-21T12:31:41.875Z,34.20
2018-08-21T12:34:10.697Z,34.20
2018-08-21T12:36:39.501Z,34.50
2018-08-21T12:39:11.799Z,34.70
2018-08-21T12:41:41.186Z,34.80
2018-08-21T12:44:10.391Z,34.90
2018-08-21T12:46:39.220Z,34.70
2018-08-21T12:49:08.269Z,34.10
2018-08-21T12:51:37.088Z,34.10
2018-08-21T12:54:05.890Z,34.40
2018-08-21T12:56:34.706Z,34.70
2018-08-21T12:59:03.544Z,34.80
2018-08-21T13:01:32.375Z,34.70
2018-08-21T13:04:01.285Z,34.20
2018-08-21T13:06:30.095Z,34.00
2018-08-21T13:08:58.918Z,34.00
2018-08-21T13:11:27.708Z,33.80
2018-08-21T13:13:56.483Z,33.80
2018-08-21T13:16:25.267Z,33.90
2018-08-21T13:18:54.136Z,33.90
2018-08-21T13:21:22.931Z,33.80
2018-08-21T13:23:51.754Z,33.80
2018-08-21T13:26:20.546Z,33.60
2018-08-21T13:28:49.382Z,33.40
2018-08-21T13:31:18.247Z,33.20
2018-08-21T13:33:47.044Z,32.90
2018-08-21T13:36:15.897Z,32.70
2018-08-21T13:38:44.722Z,32.60
2018-08-21T13:41:13.509Z,32.60
2018-08-21T13:43:42.366Z,32.50
2018-08-21T13:46:11.131Z,32.70
2018-08-21T13:48:39.914Z,33.00
2018-08-21T13:51:08.720Z,33.20
2018-08-21T13:53:37.505Z,33.50
2018-08-21T13:56:06.776Z,33.70
2018-08-21T13:58:35.587Z,33.80
2018-08-21T14:01:04.399Z,34.00
2018-08-21T14:03:33.192Z,34.00
2018-08-21T14:06:01.987Z,33.90
2018-08-21T14:08:30.778Z,33.70
2018-08-21T14:10:59.576Z,33.50
2018-08-21T14:13:28.367Z,33.30
2018-08-21T14:15:57.207Z,33.20
2018-08-21T14:18:26.001Z,33.00
2018-08-21T14:20:54.846Z,32.90
2018-08-21T14:23:23.664Z,32.70
2018-08-21T14:25:52.535Z,32.60
2018-08-21T14:28:21.335Z,32.40
2018-08-21T14:30:50.135Z,32.40
2018-08-21T14:33:18.941Z,32.40
2018-08-21T14:35:47.756Z,32.40
2018-08-21T14:38:16.552Z,32.40
2018-08-21T14:40:45.341Z,32.30
2018-08-21T14:43:14.142Z,32.20
2018-08-21T14:45:42.975Z,32.10
2018-08-21T14:48:11.787Z,32.10
2018-08-21T14:50:40.583Z,31.90
2018-08-21T14:53:09.395Z,31.80
2018-08-21T14:55:38.199Z,31.70
2018-08-21T14:58:06.995Z,31.70
2018-08-21T15:00:35.879Z,31.60
2018-08-21T15:03:04.804Z,31.60
2018-08-21T15:05:33.607Z,31.50
2018-08-21T15:08:02.374Z,31.40
2018-08-21T15:10:31.225Z,31.30
2018-08-21T15:12:59.978Z,31.30
2018-08-21T15:15:28.810Z,31.20
2018-08-21T15:17:57.595Z,31.20
2018-08-21T15:20:26.395Z,31.20
2018-08-21T15:22:55.200Z,31.10
2018-08-21T15:25:24.002Z,31.00
2018-08-21T15:27:52.799Z,30.90
2018-08-21T15:30:21.583Z,30.80
2018-08-21T15:32:50.399Z,30.80
2018-08-21T15:35:19.184Z,30.80
2018-08-21T15:37:47.979Z,30.90
2018-08-21T15:40:16.847Z,30.90
2018-08-21T15:42:45.657Z,30.80
2018-08-21T15:45:14.452Z,30.90
2018-08-21T15:47:43.270Z,30.80
2018-08-21T15:50:12.051Z,30.80
2018-08-21T15:52:41.626Z,30.80
2018-08-21T15:55:10.431Z,30.70
2018-08-21T15:57:39.214Z,30.60
2018-08-21T16:00:08.075Z,30.60
2018-08-21T16:02:36.974Z,30.50
2018-08-21T16:05:06.436Z,30.50
2018-08-21T16:07:39.786Z,30.50
2018-08-21T16:10:08.572Z,30.40
2018-08-21T16:12:37.677Z,30.40
2018-08-21T16:15:07.215Z,30.30
2018-08-21T16:17:36.091Z,30.30
2018-08-21T16:20:05.127Z,30.20
2018-08-21T16:22:33.907Z,30.10
2018-08-21T16:25:02.787Z,30.10
2018-08-21T16:27:31.584Z,30.10
2018-08-21T16:30:00.446Z,30.10
2018-08-21T16:32:29.268Z,30.00
2018-08-21T16:34:58.092Z,29.90
2018-08-21T16:37:27.148Z,29.90
2018-08-21T16:39:56.194Z,29.90
2018-08-21T16:42:24.785Z,29.80
2018-08-21T16:44:53.586Z,29.80
2018-08-21T16:47:22.386Z,29.70
2018-08-21T16:49:51.200Z,29.70
2018-08-21T16:52:20.009Z,29.50
2018-08-21T16:54:48.970Z,29.40
2018-08-21T16:57:17.759Z,29.40
2018-08-21T16:59:46.553Z,29.30
2018-08-21T17:02:15.370Z,29.30
2018-08-21T17:04:44.154Z,29.20
2018-08-21T17:07:12.943Z,29.20
2018-08-21T17:09:41.745Z,29.10
2018-08-21T17:12:10.552Z,29.10
2018-08-21T17:14:39.333Z,29.10
2018-08-21T17:17:08.186Z,29.00
2018-08-21T17:19:36.999Z,28.80
2018-08-21T17:22:05.836Z,28.80
2018-08-21T17:24:34.682Z,28.70
2018-08-21T17:27:03.555Z,28.60
2018-08-21T17:29:32.341Z,28.40
2018-08-21T17:32:01.216Z,28.40
2018-08-21T17:34:30.080Z,28.30
2018-08-21T17:36:58.946Z,28.30
2018-08-21T17:39:27.803Z,28.30
2018-08-21T17:41:56.684Z,28.20
2018-08-21T17:44:25.523Z,28.10
2018-08-21T17:46:54.418Z,28.00
2018-08-21T17:49:23.323Z,27.90
2018-08-21T17:51:52.326Z,27.90
2018-08-21T17:54:21.198Z,27.80
2018-08-21T17:56:49.975Z,27.80
2018-08-21T17:59:18.830Z,27.70
2018-08-21T18:01:47.974Z,27.70
2018-08-21T18:04:17.035Z,27.60
2018-08-21T18:06:45.951Z,27.50
2018-08-21T18:09:14.739Z,27.40
2018-08-21T18:11:43.626Z,27.30
2018-08-21T18:14:12.468Z,27.10
2018-08-21T18:16:41.313Z,27.00
2018-08-21T18:19:10.253Z,26.90
2018-08-21T18:21:39.034Z,26.90
2018-08-21T18:24:08.069Z,26.80
2018-08-21T18:26:36.932Z,26.70
2018-08-21T18:29:05.737Z,26.60
2018-08-21T18:31:34.584Z,26.50
2018-08-21T18:34:03.427Z,26.40
2018-08-21T18:36:32.311Z,26.40
2018-08-21T18:39:01.124Z,26.30
2018-08-21T18:41:29.950Z,26.30
2018-08-21T18:43:58.739Z,26.20
2018-08-21T18:46:28.522Z,26.10
2018-08-21T18:48:57.497Z,26.10
2018-08-21T18:51:26.331Z,26.10
2018-08-21T18:53:55.162Z,26.00
2018-08-21T18:56:24.120Z,25.90
2018-08-21T18:58:52.931Z,25.90
2018-08-21T19:01:21.757Z,25.90
2018-08-21T19:03:50.648Z,25.80
2018-08-21T19:06:19.518Z,25.70
2018-08-21T19:08:48.331Z,25.60
2018-08-21T19:11:17.111Z,25.50
2018-08-21T19:13:45.914Z,25.50
2018-08-21T19:16:14.875Z,25.40
2018-08-21T19:18:43.715Z,25.40
2018-08-21T19:21:12.566Z,25.20
2018-08-21T19:23:42.003Z,25.20
2018-08-21T19:26:11.745Z,25.20
2018-08-21T19:28:40.751Z,25.20
2018-08-21T19:31:09.567Z,25.10
2018-08-21T19:33:38.418Z,25.10
2018-08-21T19:36:07.330Z,25.00
2018-08-21T19:38:36.161Z,24.90
2018-08-21T19:41:05.004Z,24.80
2018-08-21T19:43:34.504Z,24.80
2018-08-21T19:46:03.388Z,24.80
2018-08-21T19:48:32.184Z,24.70
2018-08-21T19:51:01.049Z,24.70
2018-08-21T19:53:30.819Z,24.70
2018-08-21T19:55:59.810Z,24.60
2018-08-21T19:58:28.655Z,24.60
2018-08-21T20:00:57.478Z,24.60
2018-08-21T20:03:26.349Z,24.60
2018-08-21T20:05:55.322Z,24.60
2018-08-21T20:08:24.294Z,24.60
2018-08-21T20:10:53.116Z,24.60
2018-08-21T20:13:21.957Z,24.50
2018-08-21T20:15:50.831Z,24.50
2018-08-21T20:18:19.776Z,24.40
2018-08-21T20:20:48.639Z,24.40
2018-08-21T20:23:17.476Z,24.40
2018-08-21T20:25:46.376Z,24.40
2018-08-21T20:28:15.183Z,24.40
2018-08-21T20:30:44.413Z,24.40
2018-08-21T20:33:13.307Z,24.30
2018-08-21T20:35:42.189Z,24.30
2018-08-21T20:38:11.084Z,24.20
2018-08-21T20:40:45.074Z,24.20
2018-08-21T20:43:13.912Z,24.10
2018-08-21T20:45:42.824Z,24.00
2018-08-21T20:48:11.651Z,24.10
2018-08-21T20:50:40.572Z,24.10
2018-08-21T20:53:09.380Z,24.00
2018-08-21T20:55:38.343Z,24.00
2018-08-21T20:58:07.206Z,24.00
2018-08-21T21:00:36.027Z,23.90
2018-08-21T21:03:05.196Z,23.90
2018-08-21T21:05:34.419Z,23.90
2018-08-21T21:08:03.969Z,23.80
2018-08-21T21:10:32.819Z,23.80
2018-08-21T21:12:59.983Z,23.80
2018-08-21T21:15:45.866Z,23.70
2018-08-21T21:18:31.700Z,23.70
2018-08-21T21:21:17.531Z,23.70
2018-08-21T21:23:44.691Z,23.70
2018-08-21T21:26:13.687Z,23.60
2018-08-21T21:28:43.870Z,23.50
2018-08-21T21:31:12.799Z,23.50
2018-08-21T21:33:41.541Z,23.50
2018-08-21T21:36:10.399Z,23.40
2018-08-21T21:38:39.187Z,23.40
2018-08-21T21:41:08.048Z,23.40
2018-08-21T21:43:36.851Z,23.30
2018-08-21T21:46:05.745Z,23.30
2018-08-21T21:48:34.974Z,23.20
2018-08-21T21:51:03.938Z,23.20
2018-08-21T21:53:32.780Z,23.20
2018-08-21T21:56:01.631Z,23.20
2018-08-21T21:58:30.534Z,23.20
2018-08-21T22:00:59.375Z,23.10
2018-08-21T22:03:28.221Z,23.10
2018-08-21T22:05:57.108Z,23.00
2018-08-21T22:08:25.939Z,23.00
2018-08-21T22:10:54.782Z,23.00
2018-08-21T22:13:23.596Z,23.00
2018-08-21T22:15:52.459Z,23.00
2018-08-21T22:18:21.350Z,22.90
2018-08-21T22:20:50.179Z,22.90
2018-08-21T22:23:19.079Z,22.90
2018-08-21T22:25:47.998Z,22.80
2018-08-21T22:28:16.824Z,22.90
2018-08-21T22:30:45.624Z,22.80
2018-08-21T22:33:14.447Z,22.80
2018-08-21T22:35:43.374Z,22.70
2018-08-21T22:38:12.178Z,22.70
2018-08-21T22:40:41.015Z,22.70
2018-08-21T22:43:09.887Z,22.70
2018-08-21T22:45:38.744Z,22.70
2018-08-21T22:48:07.652Z,22.70
2018-08-21T22:50:36.491Z,22.60
2018-08-21T22:53:05.548Z,22.60
2018-08-21T22:55:34.483Z,22.60
2018-08-21T22:58:03.391Z,22.60
2018-08-21T23:00:32.233Z,22.60
2018-08-21T23:03:01.054Z,22.50
2018-08-21T23:05:29.950Z,22.40
2018-08-21T23:07:58.782Z,22.40
2018-08-21T23:10:27.652Z,22.50
2018-08-21T23:12:56.475Z,22.50
2018-08-21T23:15:25.336Z,22.40
2018-08-21T23:17:54.179Z,22.40
2018-08-21T23:20:23.035Z,22.30
2018-08-21T23:22:51.879Z,22.30
2018-08-21T23:25:20.774Z,22.30
2018-08-21T23:27:49.719Z,22.30
2018-08-21T23:30:18.672Z,22.20
2018-08-21T23:32:47.526Z,22.20
2018-08-21T23:35:16.571Z,22.20
2018-08-21T23:37:45.391Z,22.20
2018-08-21T23:40:14.198Z,22.20
2018-08-21T23:42:43.034Z,22.20
2018-08-21T23:45:11.891Z,22.10
2018-08-21T23:47:40.719Z,22.10
2018-08-21T23:50:09.518Z,22.20
2018-08-21T23:52:38.326Z,22.20
2018-08-21T23:55:07.262Z,22.10
2018-08-21T23:57:36.078Z,22.10
